createdAt,value
2023-05-17T00:00:37.972Z,27.30
2023-05-17T00:02:46.973Z,25.70
2023-05-17T00:04:54.508Z,24.40
2023-05-17T00:07:01.820Z,22.15
2023-05-17T00:09:08.894Z,23.52
2023-05-17T00:11:16.334Z,22.55
2023-05-17T00:13:23.620Z,24.85
2023-05-17T00:15:31.147Z,37.30
2023-05-17T00:17:39.112Z,30.75
2023-05-17T00:19:48.169Z,23.98
2023-05-17T00:21:55.623Z,24.30
2023-05-17T00:24:02.803Z,25.35
2023-05-17T00:26:10.000Z,24.73
2023-05-17T00:28:17.523Z,24.23
2023-05-17T00:30:24.706Z,23.50
2023-05-17T00:32:32.015Z,21.98
2023-05-17T00:34:39.071Z,20.75
2023-05-17T00:36:48.146Z,21.33
2023-05-17T00:38:55.279Z,21.58
2023-05-17T00:41:02.506Z,20.50
2023-05-17T00:43:09.637Z,29.85
2023-05-17T00:45:17.126Z,30.25
2023-05-17T00:47:24.138Z,24.45
2023-05-17T00:49:32.003Z,30.45
2023-05-17T00:51:40.079Z,26.30
2023-05-17T00:53:49.448Z,27.77
2023-05-17T00:55:57.441Z,19.92
2023-05-17T00:58:04.879Z,19.70
2023-05-17T01:00:12.989Z,18.55
2023-05-17T01:02:20.877Z,19.40
2023-05-17T01:04:28.751Z,26.80
2023-05-17T01:06:36.675Z,25.77
2023-05-17T01:08:48.627Z,26.13
2023-05-17T01:11:04.896Z,17.48
2023-05-17T01:13:18.806Z,15.52
2023-05-17T01:15:30.064Z,15.95
2023-05-17T01:17:44.012Z,16.65
2023-05-17T01:20:10.319Z,17.02
2023-05-17T01:22:29.665Z,16.05
2023-05-17T01:24:48.977Z,15.57
2023-05-17T01:27:00.000Z,15.70
2023-05-17T01:29:11.638Z,14.38
2023-05-17T01:31:19.690Z,15.38
2023-05-17T01:33:27.772Z,16.35
2023-05-17T01:35:35.078Z,16.88
2023-05-17T01:37:42.525Z,17.05
2023-05-17T01:39:50.572Z,16.98
2023-05-17T01:42:08.449Z,17.98
2023-05-17T01:44:21.677Z,17.40
2023-05-17T01:46:31.999Z,16.60
2023-05-17T01:48:43.035Z,16.95
2023-05-17T01:50:54.123Z,16.77
2023-05-17T01:53:10.933Z,16.10
2023-05-17T01:55:29.580Z,16.88
2023-05-17T01:57:41.213Z,16.73
2023-05-17T01:59:49.062Z,15.57
2023-05-17T02:01:59.010Z,17.13
2023-05-17T02:04:06.062Z,18.02
2023-05-17T02:06:13.492Z,17.83
2023-05-17T02:08:21.459Z,16.63
2023-05-17T02:10:29.071Z,15.88
2023-05-17T02:12:38.453Z,16.05
2023-05-17T02:14:45.992Z,16.85
2023-05-17T02:16:53.436Z,15.63
2023-05-17T02:19:00.926Z,15.93
2023-05-17T02:21:08.740Z,16.20
2023-05-17T02:23:16.627Z,15.73
2023-05-17T02:25:23.749Z,15.75
2023-05-17T02:27:31.387Z,16.23
2023-05-17T02:29:42.202Z,15.32
2023-05-17T02:31:49.694Z,16.23
2023-05-17T02:33:58.099Z,15.82
2023-05-17T02:36:05.341Z,15.90
2023-05-17T02:38:12.622Z,15.18
2023-05-17T02:40:21.664Z,15.13
2023-05-17T02:42:28.929Z,15.57
2023-05-17T02:44:36.060Z,14.38
2023-05-17T02:46:45.812Z,15.65
2023-05-17T02:48:52.945Z,14.93
2023-05-17T02:51:00.011Z,14.38
2023-05-17T02:53:07.295Z,15.73
2023-05-17T02:55:14.525Z,15.00
2023-05-17T02:57:21.810Z,15.40
2023-05-17T02:59:29.605Z,15.23
2023-05-17T03:01:37.452Z,15.52
2023-05-17T03:03:47.188Z,13.98
2023-05-17T03:05:55.403Z,15.65
2023-05-17T03:08:03.298Z,18.48
2023-05-17T03:10:12.428Z,14.18
2023-05-17T03:12:23.651Z,14.43
2023-05-17T03:14:31.150Z,14.73
2023-05-17T03:16:38.581Z,14.02
2023-05-17T03:18:48.126Z,15.00
2023-05-17T03:20:55.925Z,14.65
2023-05-17T03:23:03.561Z,15.23
2023-05-17T03:25:13.143Z,15.10
2023-05-17T03:27:20.842Z,14.55
2023-05-17T03:29:28.934Z,14.98
2023-05-17T03:31:36.885Z,14.07
2023-05-17T03:33:44.008Z,12.57
2023-05-17T03:35:53.704Z,14.10
2023-05-17T03:38:01.146Z,14.10
2023-05-17T03:40:09.456Z,14.23
2023-05-17T03:42:16.687Z,13.50
2023-05-17T03:44:24.393Z,13.13
2023-05-17T03:46:33.096Z,13.40
2023-05-17T03:48:40.881Z,12.50
2023-05-17T03:50:49.711Z,13.60
2023-05-17T03:52:59.507Z,14.02
2023-05-17T03:55:07.050Z,13.40
2023-05-17T03:57:14.592Z,14.00
2023-05-17T03:59:22.437Z,13.55
2023-05-17T04:01:30.180Z,12.65
2023-05-17T04:03:38.489Z,12.43
2023-05-17T04:05:47.777Z,13.52
2023-05-17T04:07:55.111Z,13.02
2023-05-17T04:10:04.798Z,14.02
2023-05-17T04:12:13.204Z,12.70
2023-05-17T04:14:21.411Z,13.70
2023-05-17T04:16:28.540Z,12.90
2023-05-17T04:18:37.995Z,12.13
2023-05-17T04:20:45.399Z,12.50
2023-05-17T04:22:53.004Z,12.23
2023-05-17T04:25:00.397Z,12.90
2023-05-17T04:27:11.018Z,13.18
2023-05-17T04:29:18.089Z,12.27
2023-05-17T04:31:25.366Z,14.63
2023-05-17T04:33:32.521Z,13.25
2023-05-17T04:35:40.446Z,13.45
2023-05-17T04:37:47.683Z,12.55
2023-05-17T04:40:01.877Z,12.00
2023-05-17T04:42:13.320Z,12.32
2023-05-17T04:44:26.580Z,12.63
2023-05-17T04:46:34.025Z,13.27
2023-05-17T04:48:41.711Z,12.25
2023-05-17T04:50:50.004Z,12.38
2023-05-17T04:52:57.307Z,12.25
2023-05-17T04:55:04.741Z,12.05
2023-05-17T04:57:14.073Z,12.82
2023-05-17T04:59:35.284Z,12.65
2023-05-17T05:01:42.978Z,13.10
2023-05-17T05:03:50.690Z,12.95
2023-05-17T05:05:58.081Z,12.95
2023-05-17T05:08:05.497Z,13.27
2023-05-17T05:10:13.800Z,12.13
2023-05-17T05:12:23.594Z,12.70
2023-05-17T05:14:31.235Z,12.45
2023-05-17T05:16:38.724Z,13.23
2023-05-17T05:18:46.316Z,13.82
2023-05-17T05:20:53.802Z,13.48
2023-05-17T05:23:02.113Z,13.07
2023-05-17T05:25:10.217Z,13.95
2023-05-17T05:27:17.804Z,15.48
2023-05-17T05:29:26.571Z,15.57
2023-05-17T05:31:34.062Z,14.23
2023-05-17T05:33:44.088Z,15.82
2023-05-17T05:35:51.450Z,17.00
2023-05-17T05:37:58.630Z,13.70
2023-05-17T05:40:06.325Z,14.73
2023-05-17T05:42:13.559Z,15.40
2023-05-17T05:44:20.688Z,13.85
2023-05-17T05:46:30.940Z,13.70
2023-05-17T05:48:42.714Z,13.38
2023-05-17T05:53:07.080Z,13.38
2023-05-17T05:55:22.247Z,15.00
2023-05-17T05:57:29.562Z,13.82
2023-05-17T05:59:37.178Z,12.88
2023-05-17T06:01:46.654Z,12.77
2023-05-17T06:03:54.100Z,12.38
2023-05-17T06:06:01.308Z,13.20
2023-05-17T06:08:09.179Z,13.35
2023-05-17T06:10:16.270Z,12.73
2023-05-17T06:12:23.523Z,12.82
2023-05-17T06:14:31.324Z,13.63
2023-05-17T06:16:38.828Z,14.65
2023-05-17T06:18:51.405Z,13.02
2023-05-17T06:20:58.977Z,13.30
2023-05-17T06:23:06.268Z,12.52
2023-05-17T06:25:14.239Z,13.25
2023-05-17T06:27:21.803Z,13.35
2023-05-17T06:29:29.379Z,12.02
2023-05-17T06:31:36.729Z,13.18
2023-05-17T06:33:46.141Z,12.63
2023-05-17T06:35:57.620Z,11.52
2023-05-17T06:38:05.643Z,11.70
2023-05-17T06:40:16.561Z,12.27
2023-05-17T06:42:24.364Z,12.38
2023-05-17T06:44:31.887Z,11.60
2023-05-17T06:46:39.436Z,12.13
2023-05-17T06:48:50.792Z,12.10
2023-05-17T06:50:58.772Z,12.68
2023-05-17T06:53:06.106Z,12.77
2023-05-17T06:55:13.862Z,12.23
2023-05-17T06:57:20.874Z,12.77
2023-05-17T06:59:28.119Z,12.73
2023-05-17T07:01:36.208Z,12.85
2023-05-17T07:03:43.942Z,12.95
2023-05-17T07:05:53.029Z,12.52
2023-05-17T07:08:00.312Z,11.88
2023-05-17T07:10:07.714Z,12.55
2023-05-17T07:12:15.103Z,13.57
2023-05-17T07:14:22.116Z,12.45
2023-05-17T07:16:29.450Z,11.98
2023-05-17T07:18:36.891Z,13.48
2023-05-17T07:20:47.090Z,12.85
2023-05-17T07:22:56.370Z,13.27
2023-05-17T07:25:04.166Z,13.23
2023-05-17T07:27:11.465Z,13.07
2023-05-17T07:29:19.065Z,12.55
2023-05-17T07:31:26.279Z,12.68
2023-05-17T07:33:33.887Z,12.73
2023-05-17T07:35:41.000Z,12.93
2023-05-17T07:37:48.440Z,13.13
2023-05-17T07:40:00.057Z,13.27
2023-05-17T07:42:07.252Z,13.35
2023-05-17T07:44:14.590Z,14.50
2023-05-17T07:46:21.774Z,13.00
2023-05-17T07:48:29.059Z,14.60
2023-05-17T07:50:37.109Z,13.43
2023-05-17T07:52:44.444Z,13.07
2023-05-17T07:54:51.997Z,13.55
2023-05-17T07:57:01.327Z,12.77
2023-05-17T07:59:08.548Z,12.50
2023-05-17T08:01:15.582Z,13.63
2023-05-17T08:03:23.326Z,13.10
2023-05-17T08:05:30.941Z,12.85
2023-05-17T08:07:38.908Z,13.60
2023-05-17T08:09:46.515Z,12.77
2023-05-17T08:11:53.832Z,13.32
2023-05-17T08:14:02.648Z,13.15
2023-05-17T08:16:14.320Z,12.73
2023-05-17T08:18:22.089Z,13.95
2023-05-17T08:20:29.480Z,13.50
2023-05-17T08:22:41.779Z,12.85
2023-05-17T08:24:49.627Z,13.20
2023-05-17T08:26:57.637Z,13.43
2023-05-17T08:29:07.386Z,13.35
2023-05-17T08:31:14.938Z,12.73
2023-05-17T08:33:24.547Z,13.00
2023-05-17T08:35:32.637Z,13.27
2023-05-17T08:37:40.293Z,12.77
2023-05-17T08:39:47.364Z,12.65
2023-05-17T08:41:55.118Z,12.50
2023-05-17T08:44:02.707Z,12.82
2023-05-17T08:46:13.322Z,12.60
2023-05-17T08:48:20.974Z,12.07
2023-05-17T08:50:31.041Z,12.30
2023-05-17T08:52:40.833Z,13.27
2023-05-17T08:54:48.396Z,12.57
2023-05-17T08:56:59.570Z,13.57
2023-05-17T09:01:17.834Z,12.80
2023-05-17T09:03:26.877Z,12.70
2023-05-17T09:05:34.111Z,13.48
2023-05-17T09:07:41.831Z,14.50
2023-05-17T09:09:49.163Z,14.20
2023-05-17T09:11:56.548Z,13.25
2023-05-17T09:14:04.550Z,13.27
2023-05-17T09:16:19.307Z,12.20
2023-05-17T09:18:34.964Z,12.85
2023-05-17T09:20:43.603Z,12.95
2023-05-17T09:22:53.479Z,16.33
2023-05-17T09:25:03.751Z,16.48
2023-05-17T09:27:10.888Z,15.20
2023-05-17T09:29:19.398Z,14.52
2023-05-17T09:31:28.174Z,16.02
2023-05-17T09:33:35.538Z,15.55
2023-05-17T09:35:43.654Z,15.45
2023-05-17T09:37:51.298Z,15.40
2023-05-17T09:39:59.503Z,15.25
2023-05-17T09:42:07.609Z,15.48
2023-05-17T09:44:15.921Z,15.32
2023-05-17T09:46:24.583Z,14.10
2023-05-17T09:48:34.245Z,15.95
2023-05-17T09:50:46.572Z,17.35
2023-05-17T09:52:53.808Z,18.52
2023-05-17T09:55:02.212Z,16.55
2023-05-17T09:57:11.457Z,15.80
2023-05-17T09:59:19.703Z,15.45
2023-05-17T10:01:29.075Z,16.15
2023-05-17T10:03:39.224Z,15.27
2023-05-17T10:05:48.928Z,15.13
2023-05-17T10:07:59.652Z,15.80
2023-05-17T10:10:08.002Z,15.10
2023-05-17T10:12:17.185Z,29.60
2023-05-17T10:14:29.609Z,19.77
2023-05-17T10:16:38.205Z,19.35
2023-05-17T10:18:47.989Z,16.88
2023-05-17T10:20:56.056Z,18.83
2023-05-17T10:23:07.270Z,21.92
2023-05-17T10:25:15.535Z,25.17
2023-05-17T10:27:23.736Z,23.33
2023-05-17T10:29:32.557Z,19.73
2023-05-17T10:31:39.744Z,18.67
2023-05-17T10:33:53.502Z,19.30
2023-05-17T10:36:01.422Z,19.08
2023-05-17T10:38:08.757Z,18.10
2023-05-17T10:40:16.330Z,18.73
2023-05-17T10:42:25.528Z,19.52
2023-05-17T10:44:46.889Z,18.73
2023-05-17T10:46:59.292Z,18.45
2023-05-17T10:49:07.340Z,19.00
2023-05-17T10:51:15.293Z,18.75
2023-05-17T10:53:23.038Z,18.70
2023-05-17T10:55:40.312Z,20.00
2023-05-17T10:57:51.402Z,19.45
2023-05-17T11:00:04.906Z,18.50
2023-05-17T11:02:13.165Z,22.33
2023-05-17T11:04:28.823Z,21.75
2023-05-17T11:06:40.707Z,24.17
2023-05-17T11:08:49.658Z,24.27
2023-05-17T11:11:16.965Z,24.85
2023-05-17T11:13:29.275Z,21.05
2023-05-17T11:15:37.981Z,22.25
2023-05-17T11:17:57.454Z,19.95
2023-05-17T11:20:13.762Z,18.20
2023-05-17T11:22:21.936Z,16.50
2023-05-17T11:24:30.365Z,17.25
2023-05-17T11:26:41.079Z,17.35
2023-05-17T11:28:48.571Z,17.23
2023-05-17T11:31:04.915Z,17.67
2023-05-17T11:33:24.942Z,18.00
2023-05-17T11:35:41.349Z,17.90
2023-05-17T11:37:50.482Z,18.20
2023-05-17T11:40:08.972Z,20.95
2023-05-17T11:42:28.799Z,22.40
2023-05-17T11:44:36.800Z,21.90
2023-05-17T11:46:46.131Z,20.33
2023-05-17T11:48:55.444Z,24.15
2023-05-17T11:51:02.809Z,21.63
2023-05-17T11:53:11.206Z,21.50
2023-05-17T11:55:19.517Z,20.67
2023-05-17T11:57:32.543Z,20.40
2023-05-17T11:59:42.174Z,21.95
2023-05-17T12:01:51.968Z,20.73
2023-05-17T12:04:01.381Z,20.48
2023-05-17T12:06:12.553Z,20.23
2023-05-17T12:08:21.138Z,21.67
2023-05-17T12:10:29.577Z,21.55
2023-05-17T12:12:37.705Z,22.05
2023-05-17T12:14:49.344Z,22.00
2023-05-17T12:17:00.368Z,22.83
2023-05-17T12:19:07.672Z,23.57
2023-05-17T12:21:17.701Z,23.17
2023-05-17T12:23:32.215Z,22.90
2023-05-17T12:25:39.487Z,24.08
2023-05-17T12:27:46.817Z,25.50
2023-05-17T12:29:54.324Z,23.88
2023-05-17T12:34:27.676Z,22.85
2023-05-17T12:36:36.380Z,24.33
2023-05-17T12:38:44.911Z,23.27
2023-05-17T12:40:52.643Z,24.20
2023-05-17T12:43:06.323Z,25.35
2023-05-17T12:45:15.555Z,25.17
2023-05-17T12:47:22.527Z,23.08
2023-05-17T12:49:31.601Z,22.05
2023-05-17T12:51:45.887Z,22.63
2023-05-17T12:53:56.867Z,22.27
2023-05-17T12:56:04.000Z,22.27
2023-05-17T12:58:11.304Z,24.20
2023-05-17T13:00:19.596Z,23.27
2023-05-17T13:02:27.036Z,23.92
2023-05-17T13:04:39.055Z,24.48
2023-05-17T13:06:51.085Z,26.83
2023-05-17T13:09:03.580Z,27.67
2023-05-17T13:11:15.730Z,25.88
2023-05-17T13:13:23.681Z,27.13
2023-05-17T13:15:33.265Z,26.42
2023-05-17T13:17:45.765Z,29.15
2023-05-17T13:19:55.290Z,27.77
2023-05-17T13:22:02.800Z,29.85
2023-05-17T13:24:12.245Z,30.48
2023-05-17T13:26:19.776Z,28.70
2023-05-17T13:28:27.476Z,29.42
2023-05-17T13:30:34.466Z,30.83
2023-05-17T13:32:42.216Z,29.40
2023-05-17T13:34:49.994Z,28.65
2023-05-17T13:36:59.983Z,29.60
2023-05-17T13:39:07.388Z,28.77
2023-05-17T13:41:15.012Z,29.27
2023-05-17T13:43:22.410Z,28.95
2023-05-17T13:45:30.004Z,28.33
2023-05-17T13:47:37.291Z,27.55
2023-05-17T13:49:47.115Z,29.38
2023-05-17T13:51:54.419Z,28.95
2023-05-17T13:54:05.164Z,29.20
2023-05-17T13:56:13.118Z,28.63
2023-05-17T13:58:20.541Z,26.05
2023-05-17T14:00:28.190Z,26.75
2023-05-17T14:02:35.910Z,24.85
2023-05-17T14:04:43.303Z,25.63
2023-05-17T14:06:53.147Z,25.25
2023-05-17T14:09:04.462Z,23.33
2023-05-17T14:11:12.640Z,22.95
2023-05-17T14:13:19.992Z,23.40
2023-05-17T14:15:28.593Z,22.85
2023-05-17T14:17:35.952Z,21.77
2023-05-17T14:19:43.899Z,21.98
2023-05-17T14:21:51.229Z,23.27
2023-05-17T14:23:58.561Z,22.88
2023-05-17T14:26:08.408Z,22.50
2023-05-17T14:28:16.091Z,23.45
2023-05-17T14:30:23.687Z,23.20
2023-05-17T14:32:31.417Z,24.88
2023-05-17T14:34:38.975Z,23.95
2023-05-17T14:36:46.412Z,23.17
2023-05-17T14:38:54.006Z,24.10
2023-05-17T14:41:03.324Z,24.45
2023-05-17T14:43:12.413Z,24.70
2023-05-17T14:45:19.450Z,26.70
2023-05-17T14:47:27.538Z,26.55
2023-05-17T14:49:34.926Z,24.88
2023-05-17T14:51:42.315Z,26.42
2023-05-17T14:53:50.058Z,26.52
2023-05-17T14:55:57.140Z,26.88
2023-05-17T14:58:04.740Z,26.00
2023-05-17T15:00:14.778Z,26.95
2023-05-17T15:02:22.686Z,26.95
2023-05-17T15:04:29.943Z,28.00
2023-05-17T15:06:37.551Z,26.15
2023-05-17T15:08:44.731Z,26.00
2023-05-17T15:10:52.937Z,28.42
2023-05-17T15:12:59.996Z,23.85
2023-05-17T15:15:07.675Z,24.50
2023-05-17T15:17:16.803Z,23.95
2023-05-17T15:19:24.418Z,24.05
2023-05-17T15:21:31.562Z,23.92
2023-05-17T15:23:38.842Z,24.95
2023-05-17T15:25:46.083Z,26.05
2023-05-17T15:27:54.240Z,27.00
2023-05-17T15:30:01.673Z,26.60
2023-05-17T15:32:09.724Z,26.08
2023-05-17T15:34:18.936Z,26.27
2023-05-17T15:36:26.638Z,26.25
2023-05-17T15:38:33.915Z,25.65
2023-05-17T15:40:41.522Z,25.10
2023-05-17T15:42:48.915Z,24.15
2023-05-17T15:44:56.448Z,23.98
2023-05-17T15:47:03.781Z,23.42
2023-05-17T15:49:11.470Z,22.30
2023-05-17T15:51:20.604Z,23.20
2023-05-17T15:53:28.574Z,22.65
2023-05-17T15:55:35.889Z,22.73
2023-05-17T15:57:43.837Z,22.95
2023-05-17T15:59:51.277Z,22.42
2023-05-17T16:01:58.867Z,20.92
2023-05-17T16:04:05.864Z,20.50
2023-05-17T16:06:13.232Z,19.35
2023-05-17T16:08:22.049Z,20.67
2023-05-17T16:10:29.397Z,19.55
2023-05-17T16:12:36.977Z,20.95
2023-05-17T16:14:45.383Z,19.15
2023-05-17T16:16:52.881Z,18.65
2023-05-17T16:19:00.383Z,19.55
2023-05-17T16:21:09.031Z,20.55
2023-05-17T16:23:16.416Z,20.60
2023-05-17T16:25:27.356Z,22.40
2023-05-17T16:27:34.927Z,21.10
2023-05-17T16:29:42.578Z,20.60
2023-05-17T16:31:52.414Z,21.10
2023-05-17T16:33:59.731Z,18.70
2023-05-17T16:36:07.854Z,19.20
2023-05-17T16:38:15.394Z,19.77
2023-05-17T16:40:24.526Z,19.25
2023-05-17T16:42:32.372Z,19.10
2023-05-17T16:44:39.761Z,19.95
2023-05-17T16:46:47.315Z,21.55
2023-05-17T16:48:54.986Z,20.58
2023-05-17T16:51:02.577Z,20.50
2023-05-17T16:53:10.068Z,19.75
2023-05-17T16:55:17.401Z,19.52
2023-05-17T16:57:26.484Z,20.13
2023-05-17T16:59:34.223Z,19.38
2023-05-17T17:01:41.597Z,20.67
2023-05-17T17:03:49.535Z,19.80
2023-05-17T17:05:56.842Z,18.38
2023-05-17T17:08:04.441Z,18.95
2023-05-17T17:10:12.689Z,18.40
2023-05-17T17:12:24.705Z,19.83
2023-05-17T17:14:34.839Z,19.58
2023-05-17T17:16:42.821Z,18.05
2023-05-17T17:18:50.647Z,18.83
2023-05-17T17:20:58.373Z,19.58
2023-05-17T17:23:05.337Z,19.38
2023-05-17T17:25:13.466Z,19.40
2023-05-17T17:27:20.534Z,19.15
2023-05-17T17:29:27.866Z,19.33
2023-05-17T17:31:37.151Z,19.48
2023-05-17T17:33:44.787Z,20.63
2023-05-17T17:35:52.333Z,19.95
2023-05-17T17:37:59.771Z,19.65
2023-05-17T17:40:07.111Z,20.00
2023-05-17T17:42:14.766Z,19.35
2023-05-17T17:44:21.793Z,20.30
2023-05-17T17:46:31.035Z,20.67
2023-05-17T17:48:40.034Z,19.95
2023-05-17T17:50:47.677Z,20.80
2023-05-17T17:52:55.062Z,20.10
2023-05-17T17:55:02.604Z,20.45
2023-05-17T17:57:09.941Z,19.92
2023-05-17T17:59:17.288Z,20.80
2023-05-17T18:01:24.754Z,20.30
2023-05-17T18:03:32.308Z,20.65
2023-05-17T18:05:41.030Z,20.00
2023-05-17T18:07:48.507Z,21.25
2023-05-17T18:09:55.534Z,21.77
2023-05-17T18:12:02.870Z,20.73
2023-05-17T18:14:09.952Z,23.10
2023-05-17T18:16:17.661Z,22.35
2023-05-17T18:18:25.033Z,21.30
2023-05-17T18:20:32.654Z,21.48
2023-05-17T18:22:41.647Z,21.95
2023-05-17T18:24:49.188Z,22.92
2023-05-17T18:26:56.522Z,21.20
2023-05-17T18:29:05.086Z,21.67
2023-05-17T18:31:12.422Z,21.08
2023-05-17T18:33:20.213Z,21.77
2023-05-17T18:35:27.402Z,21.10
2023-05-17T18:37:34.833Z,22.58
2023-05-17T18:39:43.980Z,22.40
2023-05-17T18:41:51.408Z,19.92
2023-05-17T18:44:02.725Z,21.98
2023-05-17T18:48:16.668Z,22.38
2023-05-17T18:50:24.222Z,21.15
2023-05-17T18:52:31.606Z,22.90
2023-05-17T18:54:38.904Z,22.25
2023-05-17T18:56:47.815Z,23.02
2023-05-17T18:58:55.659Z,21.98
2023-05-17T19:01:03.641Z,21.58
2023-05-17T19:03:11.195Z,21.63
2023-05-17T19:05:18.290Z,20.95
2023-05-17T19:07:25.718Z,22.17
2023-05-17T19:09:33.088Z,20.88
2023-05-17T19:11:40.601Z,22.88
2023-05-17T19:13:49.320Z,22.80
2023-05-17T19:15:56.546Z,21.20
2023-05-17T19:18:03.711Z,22.17
2023-05-17T19:20:13.511Z,21.50
2023-05-17T19:22:20.651Z,21.38
2023-05-17T19:24:27.676Z,20.52
2023-05-17T19:26:35.116Z,21.40
2023-05-17T19:28:42.351Z,20.30
2023-05-17T19:30:51.835Z,21.10
2023-05-17T19:32:59.189Z,21.40
2023-05-17T19:35:06.707Z,21.55
2023-05-17T19:37:14.103Z,21.75
2023-05-17T19:39:21.689Z,22.23
2023-05-17T19:41:29.391Z,21.20
2023-05-17T19:43:37.999Z,21.90
2023-05-17T19:45:45.280Z,22.02
2023-05-17T19:47:54.859Z,22.88
2023-05-17T19:50:02.463Z,21.30
2023-05-17T19:52:10.614Z,21.73
2023-05-17T19:54:17.947Z,21.15
2023-05-17T19:56:26.430Z,22.40
2023-05-17T19:58:33.393Z,22.02
2023-05-17T20:00:40.829Z,21.75
2023-05-17T20:02:49.524Z,22.10
2023-05-17T20:04:58.782Z,22.52
2023-05-17T20:07:06.120Z,20.88
2023-05-17T20:09:13.756Z,20.77
2023-05-17T20:11:21.089Z,21.70
2023-05-17T20:13:29.858Z,21.33
2023-05-17T20:15:36.985Z,21.17
2023-05-17T20:17:45.173Z,22.65
2023-05-17T20:19:53.600Z,21.48
2023-05-17T20:22:03.248Z,21.17
2023-05-17T20:24:11.083Z,22.83
2023-05-17T20:26:20.057Z,21.90
2023-05-17T20:28:27.189Z,21.65
2023-05-17T20:30:34.724Z,24.10
2023-05-17T20:32:42.212Z,22.95
2023-05-17T20:34:49.553Z,22.45
2023-05-17T20:36:57.348Z,22.83
2023-05-17T20:39:06.316Z,23.13
2023-05-17T20:41:15.981Z,23.17
2023-05-17T20:43:29.835Z,22.60
2023-05-17T20:45:37.509Z,23.88
2023-05-17T20:47:44.744Z,23.60
2023-05-17T20:49:52.774Z,23.52
2023-05-17T20:52:05.487Z,24.25
2023-05-17T20:54:14.495Z,24.35
2023-05-17T20:56:21.493Z,23.55
2023-05-17T20:58:30.005Z,24.67
2023-05-17T21:00:37.490Z,24.50
2023-05-17T21:02:45.047Z,25.17
2023-05-17T21:04:52.161Z,23.15
2023-05-17T21:07:00.141Z,23.65
2023-05-17T21:09:07.496Z,24.15
2023-05-17T21:11:22.054Z,23.77
2023-05-17T21:13:29.642Z,25.23
2023-05-17T21:15:37.436Z,23.95
2023-05-17T21:17:44.664Z,23.50
2023-05-17T21:19:52.211Z,23.77
2023-05-17T21:21:59.292Z,24.45
2023-05-17T21:24:06.684Z,23.85
2023-05-17T21:26:15.460Z,23.17
2023-05-17T21:28:23.598Z,24.25
2023-05-17T21:30:31.873Z,25.48
2023-05-17T21:32:39.832Z,24.63
2023-05-17T21:34:48.322Z,24.42
2023-05-17T21:37:02.726Z,24.58
2023-05-17T21:39:16.403Z,24.08
2023-05-17T21:41:26.779Z,25.33
2023-05-17T21:45:50.900Z,25.15
2023-05-17T21:47:59.548Z,25.55
2023-05-17T21:50:09.159Z,24.98
2023-05-17T21:52:21.253Z,24.67
2023-05-17T21:54:32.022Z,23.85
2023-05-17T21:56:47.346Z,25.57
2023-05-17T21:58:57.093Z,25.52
2023-05-17T22:01:06.360Z,24.85
2023-05-17T22:03:15.078Z,26.23
2023-05-17T22:05:26.104Z,25.38
2023-05-17T22:07:35.639Z,25.90
2023-05-17T22:09:46.589Z,28.00
2023-05-17T22:12:00.707Z,27.15
2023-05-17T22:14:12.186Z,27.40
2023-05-17T22:16:26.593Z,28.40
2023-05-17T22:18:36.605Z,28.92
2023-05-17T22:20:50.574Z,28.85
2023-05-17T22:22:59.191Z,26.73
2023-05-17T22:25:10.162Z,26.35
2023-05-17T22:27:20.108Z,26.35
2023-05-17T22:29:29.643Z,26.77
2023-05-17T22:31:40.529Z,25.45
2023-05-17T22:33:48.770Z,26.17
2023-05-17T22:35:58.259Z,28.13
2023-05-17T22:38:06.156Z,27.52
2023-05-17T22:40:15.958Z,27.88
2023-05-17T22:42:31.179Z,27.20
2023-05-17T22:44:42.811Z,27.75
2023-05-17T22:46:54.137Z,28.58
2023-05-17T22:49:11.862Z,26.50
2023-05-17T22:51:19.850Z,28.45
2023-05-17T22:53:27.100Z,30.02
2023-05-17T22:55:34.771Z,30.20
2023-05-17T22:57:43.559Z,30.60
2023-05-17T22:59:50.799Z,34.92
2023-05-17T23:01:57.805Z,34.28
2023-05-17T23:04:05.171Z,32.10
2023-05-17T23:06:12.859Z,31.67
2023-05-17T23:08:23.415Z,30.45
2023-05-17T23:10:30.704Z,31.35
2023-05-17T23:12:38.212Z,30.63
2023-05-17T23:14:46.914Z,33.55
2023-05-17T23:16:54.379Z,33.75
2023-05-17T23:19:01.536Z,32.33
2023-05-17T23:21:08.787Z,31.67
2023-05-17T23:23:16.526Z,32.30
2023-05-17T23:25:24.087Z,29.60
2023-05-17T23:27:31.319Z,28.70
2023-05-17T23:29:39.062Z,26.23
2023-05-17T23:31:49.725Z,24.05
2023-05-17T23:33:57.572Z,27.35
2023-05-17T23:36:05.214Z,26.80
2023-05-17T23:38:12.558Z,27.83
2023-05-17T23:40:20.010Z,26.58
2023-05-17T23:42:27.483Z,27.55
2023-05-17T23:44:38.960Z,33.63
2023-05-17T23:46:47.892Z,34.47
2023-05-17T23:48:55.224Z,32.75
2023-05-17T23:51:02.433Z,30.95
2023-05-17T23:53:10.655Z,23.80
2023-05-17T23:55:17.952Z,24.20
2023-05-17T23:57:25.274Z,24.42
2023-05-17T23:59:33.686Z,25.15
